sensor_id;sensor_type;location;lat;lon;timestamp;P1;durP1;ratioP1;P2;durP2;ratioP2
18290;SDS011;9271;48.590;8.866;2024-03-23T00:55:33;7.33;;;3.50;;
18290;SDS011;9271;48.590;8.866;2024-03-23T00:58:00;4.57;;;3.40;;
18290;SDS011;9271;48.590;8.866;2024-03-23T01:00:26;3.67;;;3.37;;
18290;SDS011;9271;48.590;8.866;2024-03-23T01:02:53;4.53;;;3.17;;
18290;SDS011;9271;48.590;8.866;2024-03-23T01:05:19;3.47;;;3.17;;
18290;SDS011;9271;48.590;8.866;2024-03-23T01:07:46;3.37;;;3.13;;
18290;SDS011;9271;48.590;8.866;2024-03-23T01:10:11;5.37;;;3.27;;
18290;SDS011;9271;48.590;8.866;2024-03-23T01:12:39;4.27;;;3.33;;
18290;SDS011;9271;48.590;8.866;2024-03-23T01:15:05;4.77;;;3.63;;
18290;SDS011;9271;48.590;8.866;2024-03-23T01:17:32;3.90;;;3.50;;
18290;SDS011;9271;48.590;8.866;2024-03-23T01:19:58;4.73;;;3.57;;
18290;SDS011;9271;48.590;8.866;2024-03-23T01:22:24;4.93;;;3.53;;
18290;SDS011;9271;48.590;8.866;2024-03-23T01:24:50;3.97;;;3.57;;
18290;SDS011;9271;48.590;8.866;2024-03-23T01:27:17;5.10;;;3.30;;
18290;SDS011;9271;48.590;8.866;2024-03-23T01:29:44;5.93;;;3.20;;
18290;SDS011;9271;48.590;8.866;2024-03-23T01:32:11;4.60;;;4.17;;
18290;SDS011;9271;48.590;8.866;2024-03-23T01:34:37;5.50;;;4.60;;
18290;SDS011;9271;48.590;8.866;2024-03-23T01:37:03;4.43;;;4.03;;
18290;SDS011;9271;48.590;8.866;2024-03-23T01:39:29;4.77;;;3.20;;
18290;SDS011;9271;48.590;8.866;2024-03-23T01:41:56;5.07;;;3.70;;
18290;SDS011;9271;48.590;8.866;2024-03-23T01:44:22;4.67;;;3.40;;
18290;SDS011;9271;48.590;8.866;2024-03-23T01:46:49;4.97;;;3.30;;
18290;SDS011;9271;48.590;8.866;2024-03-23T01:49:16;4.47;;;3.30;;
18290;SDS011;9271;48.590;8.866;2024-03-23T01:51:43;4.37;;;3.40;;
18290;SDS011;9271;48.590;8.866;2024-03-23T01:54:10;3.70;;;3.37;;
18290;SDS011;9271;48.590;8.866;2024-03-23T01:56:37;4.07;;;3.67;;
18290;SDS011;9271;48.590;8.866;2024-03-23T01:59:02;4.10;;;3.10;;
18290;SDS011;9271;48.590;8.866;2024-03-23T02:01:30;3.43;;;3.10;;
18290;SDS011;9271;48.590;8.866;2024-03-23T02:03:57;5.23;;;2.80;;
18290;SDS011;9271;48.590;8.866;2024-03-23T02:06:24;4.17;;;2.97;;
18290;SDS011;9271;48.590;8.866;2024-03-23T02:08:50;3.00;;;2.70;;
18290;SDS011;9271;48.590;8.866;2024-03-23T02:11:17;3.30;;;3.00;;
18290;SDS011;9271;48.590;8.866;2024-03-23T02:13:43;5.43;;;2.90;;
18290;SDS011;9271;48.590;8.866;2024-03-23T02:16:09;3.63;;;2.97;;
18290;SDS011;9271;48.590;8.866;2024-03-23T02:18:35;3.03;;;2.83;;
18290;SDS011;9271;48.590;8.866;2024-03-23T02:21:04;3.40;;;2.90;;
18290;SDS011;9271;48.590;8.866;2024-03-23T02:23:31;3.33;;;3.00;;
18290;SDS011;9271;48.590;8.866;2024-03-23T02:25:57;3.17;;;2.87;;
18290;SDS011;9271;48.590;8.866;2024-03-23T02:28:23;3.47;;;3.17;;
18290;SDS011;9271;48.590;8.866;2024-03-23T02:30:50;3.40;;;3.10;;
18290;SDS011;9271;48.590;8.866;2024-03-23T02:33:15;3.50;;;3.20;;
18290;SDS011;9271;48.590;8.866;2024-03-23T02:35:43;4.50;;;3.53;;
18290;SDS011;9271;48.590;8.866;2024-03-23T02:38:08;4.77;;;3.40;;
18290;SDS011;9271;48.590;8.866;2024-03-23T02:40:36;6.43;;;3.23;;
18290;SDS011;9271;48.590;8.866;2024-03-23T02:43:03;5.30;;;3.57;;
18290;SDS011;9271;48.590;8.866;2024-03-23T02:45:29;5.43;;;3.33;;
18290;SDS011;9271;48.590;8.866;2024-03-23T02:47:56;3.63;;;3.03;;
18290;SDS011;9271;48.590;8.866;2024-03-23T02:50:22;3.17;;;2.80;;
18290;SDS011;9271;48.590;8.866;2024-03-23T02:52:49;6.60;;;3.53;;
18290;SDS011;9271;48.590;8.866;2024-03-23T02:55:15;3.10;;;2.80;;
18290;SDS011;9271;48.590;8.866;2024-03-23T02:57:43;3.00;;;2.50;;
18290;SDS011;9271;48.590;8.866;2024-03-23T03:00:08;3.87;;;3.10;;
18290;SDS011;9271;48.590;8.866;2024-03-23T03:02:36;3.20;;;2.90;;
18290;SDS011;9271;48.590;8.866;2024-03-23T03:05:02;5.23;;;3.03;;
18290;SDS011;9271;48.590;8.866;2024-03-23T03:07:30;3.60;;;3.10;;
18290;SDS011;9271;48.590;8.866;2024-03-23T03:09:55;2.70;;;2.50;;
18290;SDS011;9271;48.590;8.866;2024-03-23T03:12:22;2.97;;;2.40;;
18290;SDS011;9271;48.590;8.866;2024-03-23T03:14:49;3.20;;;2.80;;
18290;SDS011;9271;48.590;8.866;2024-03-23T03:17:16;5.40;;;2.60;;
18290;SDS011;9271;48.590;8.866;2024-03-23T03:19:41;2.73;;;2.53;;
18290;SDS011;9271;48.590;8.866;2024-03-23T03:22:08;2.70;;;2.50;;
18290;SDS011;9271;48.590;8.866;2024-03-23T03:24:34;4.23;;;2.70;;
18290;SDS011;9271;48.590;8.866;2024-03-23T03:27:00;2.67;;;2.47;;
18290;SDS011;9271;48.590;8.866;2024-03-23T03:29:28;3.90;;;2.70;;
18290;SDS011;9271;48.590;8.866;2024-03-23T03:32:01;4.00;;;2.47;;
18290;SDS011;9271;48.590;8.866;2024-03-23T03:34:27;3.43;;;3.13;;
18290;SDS011;9271;48.590;8.866;2024-03-23T03:36:54;4.40;;;2.80;;
18290;SDS011;9271;48.590;8.866;2024-03-23T03:39:20;3.80;;;2.70;;
18290;SDS011;9271;48.590;8.866;2024-03-23T03:41:47;2.63;;;2.43;;
18290;SDS011;9271;48.590;8.866;2024-03-23T03:44:13;3.53;;;2.80;;
18290;SDS011;9271;48.590;8.866;2024-03-23T03:46:40;3.50;;;2.90;;
18290;SDS011;9271;48.590;8.866;2024-03-23T03:49:07;3.53;;;2.70;;
18290;SDS011;9271;48.590;8.866;2024-03-23T03:51:33;4.53;;;2.90;;
18290;SDS011;9271;48.590;8.866;2024-03-23T03:53:59;3.17;;;2.70;;
18290;SDS011;9271;48.590;8.866;2024-03-23T03:56:26;9.50;;;3.10;;
18290;SDS011;9271;48.590;8.866;2024-03-23T03:58:52;3.80;;;2.80;;
18290;SDS011;9271;48.590;8.866;2024-03-23T04:01:19;3.27;;;2.73;;
18290;SDS011;9271;48.590;8.866;2024-03-23T04:03:45;3.30;;;2.70;;
18290;SDS011;9271;48.590;8.866;2024-03-23T04:06:13;3.37;;;2.80;;
18290;SDS011;9271;48.590;8.866;2024-03-23T04:08:44;4.80;;;2.97;;
18290;SDS011;9271;48.590;8.866;2024-03-23T04:11:10;5.50;;;2.90;;
18290;SDS011;9271;48.590;8.866;2024-03-23T04:13:36;3.23;;;2.93;;
18290;SDS011;9271;48.590;8.866;2024-03-23T04:16:03;4.83;;;2.70;;
18290;SDS011;9271;48.590;8.866;2024-03-23T04:18:29;3.63;;;3.10;;
18290;SDS011;9271;48.590;8.866;2024-03-23T04:20:56;3.07;;;2.77;;
18290;SDS011;9271;48.590;8.866;2024-03-23T04:23:23;2.77;;;2.57;;
18290;SDS011;9271;48.590;8.866;2024-03-23T04:25:50;3.57;;;3.10;;
18290;SDS011;9271;48.590;8.866;2024-03-23T04:28:17;4.23;;;3.10;;
18290;SDS011;9271;48.590;8.866;2024-03-23T04:30:43;3.93;;;3.33;;
18290;SDS011;9271;48.590;8.866;2024-03-23T04:33:09;3.40;;;3.10;;
18290;SDS011;9271;48.590;8.866;2024-03-23T04:35:35;3.43;;;2.70;;
18290;SDS011;9271;48.590;8.866;2024-03-23T04:38:01;3.90;;;3.30;;
18290;SDS011;9271;48.590;8.866;2024-03-23T04:40:29;4.13;;;3.03;;
18290;SDS011;9271;48.590;8.866;2024-03-23T04:42:56;4.80;;;3.50;;
18290;SDS011;9271;48.590;8.866;2024-03-23T04:45:23;6.07;;;3.63;;
18290;SDS011;9271;48.590;8.866;2024-03-23T04:47:49;4.70;;;3.50;;
18290;SDS011;9271;48.590;8.866;2024-03-23T04:50:16;4.17;;;3.47;;
18290;SDS011;9271;48.590;8.866;2024-03-23T04:52:43;4.27;;;3.83;;
18290;SDS011;9271;48.590;8.866;2024-03-23T04:55:10;5.07;;;3.80;;
18290;SDS011;9271;48.590;8.866;2024-03-23T04:57:38;5.80;;;3.50;;
18290;SDS011;9271;48.590;8.866;2024-03-23T05:00:05;4.73;;;4.03;;
18290;SDS011;9271;48.590;8.866;2024-03-23T05:02:41;5.13;;;4.13;;
18290;SDS011;9271;48.590;8.866;2024-03-23T05:05:09;4.53;;;4.13;;
18290;SDS011;9271;48.590;8.866;2024-03-23T05:07:34;5.27;;;4.40;;
18290;SDS011;9271;48.590;8.866;2024-03-23T05:10:01;5.03;;;4.30;;
18290;SDS011;9271;48.590;8.866;2024-03-23T05:12:27;5.13;;;4.63;;
18290;SDS011;9271;48.590;8.866;2024-03-23T05:14:55;5.47;;;4.67;;
18290;SDS011;9271;48.590;8.866;2024-03-23T05:17:20;5.30;;;4.83;;
18290;SDS011;9271;48.590;8.866;2024-03-23T05:19:47;6.43;;;5.83;;
18290;SDS011;9271;48.590;8.866;2024-03-23T05:22:13;6.47;;;5.87;;
18290;SDS011;9271;48.590;8.866;2024-03-23T05:24:39;6.97;;;6.27;;
18290;SDS011;9271;48.590;8.866;2024-03-23T05:27:05;7.10;;;6.40;;
18290;SDS011;9271;48.590;8.866;2024-03-23T05:29:32;6.60;;;6.00;;
18290;SDS011;9271;48.590;8.866;2024-03-23T05:31:59;7.00;;;6.30;;
18290;SDS011;9271;48.590;8.866;2024-03-23T05:34:25;6.17;;;5.57;;
18290;SDS011;9271;48.590;8.866;2024-03-23T05:36:51;5.90;;;5.30;;
18290;SDS011;9271;48.590;8.866;2024-03-23T05:39:17;5.70;;;5.00;;
18290;SDS011;9271;48.590;8.866;2024-03-23T05:41:46;5.40;;;4.90;;
18290;SDS011;9271;48.590;8.866;2024-03-23T05:44:13;4.50;;;4.10;;
18290;SDS011;9271;48.590;8.866;2024-03-23T05:46:40;4.50;;;4.10;;
18290;SDS011;9271;48.590;8.866;2024-03-23T05:49:08;4.90;;;4.27;;
18290;SDS011;9271;48.590;8.866;2024-03-23T05:51:35;5.07;;;4.13;;
18290;SDS011;9271;48.590;8.866;2024-03-23T05:54:00;4.27;;;3.80;;
18290;SDS011;9271;48.590;8.866;2024-03-23T05:56:27;4.50;;;4.10;;
18290;SDS011;9271;48.590;8.866;2024-03-23T05:58:53;4.10;;;3.70;;
18290;SDS011;9271;48.590;8.866;2024-03-23T06:01:19;3.90;;;2.80;;
18290;SDS011;9271;48.590;8.866;2024-03-23T06:03:45;2.70;;;2.43;;
18290;SDS011;9271;48.590;8.866;2024-03-23T06:06:13;2.10;;;2.00;;
18290;SDS011;9271;48.590;8.866;2024-03-23T06:08:39;1.70;;;1.60;;
18290;SDS011;9271;48.590;8.866;2024-03-23T06:11:06;1.70;;;1.60;;
18290;SDS011;9271;48.590;8.866;2024-03-23T06:13:32;1.40;;;1.30;;
18290;SDS011;9271;48.590;8.866;2024-03-23T06:15:59;1.30;;;1.20;;
18290;SDS011;9271;48.590;8.866;2024-03-23T06:18:24;1.23;;;1.23;;
18290;SDS011;9271;48.590;8.866;2024-03-23T06:20:51;1.20;;;1.10;;
18290;SDS011;9271;48.590;8.866;2024-03-23T06:23:18;1.87;;;1.03;;
18290;SDS011;9271;48.590;8.866;2024-03-23T06:25:45;1.10;;;1.10;;
18290;SDS011;9271;48.590;8.866;2024-03-23T06:28:11;1.20;;;1.10;;
18290;SDS011;9271;48.590;8.866;2024-03-23T06:30:37;1.10;;;1.00;;
18290;SDS011;9271;48.590;8.866;2024-03-23T06:33:03;1.00;;;1.00;;
18290;SDS011;9271;48.590;8.866;2024-03-23T06:35:31;0.97;;;0.97;;
18290;SDS011;9271;48.590;8.866;2024-03-23T06:37:57;1.13;;;1.00;;
18290;SDS011;9271;48.590;8.866;2024-03-23T06:40:25;0.80;;;0.80;;
18290;SDS011;9271;48.590;8.866;2024-03-23T06:42:51;0.80;;;0.80;;
18290;SDS011;9271;48.590;8.866;2024-03-23T06:45:18;0.93;;;0.93;;
18290;SDS011;9271;48.590;8.866;2024-03-23T06:47:47;0.80;;;0.80;;
18290;SDS011;9271;48.590;8.866;2024-03-23T06:50:14;0.80;;;0.70;;
18290;SDS011;9271;48.590;8.866;2024-03-23T06:52:40;0.50;;;0.50;;
18290;SDS011;9271;48.590;8.866;2024-03-23T06:55:07;1.10;;;0.77;;
18290;SDS011;9271;48.590;8.866;2024-03-23T06:57:34;0.70;;;0.70;;
18290;SDS011;9271;48.590;8.866;2024-03-23T07:00:01;0.60;;;0.60;;
18290;SDS011;9271;48.590;8.866;2024-03-23T07:02:27;0.70;;;0.70;;
18290;SDS011;9271;48.590;8.866;2024-03-23T07:04:54;0.70;;;0.70;;
18290;SDS011;9271;48.590;8.866;2024-03-23T07:07:20;1.17;;;0.80;;
18290;SDS011;9271;48.590;8.866;2024-03-23T07:09:48;0.70;;;0.70;;
18290;SDS011;9271;48.590;8.866;2024-03-23T07:12:13;0.70;;;0.70;;
18290;SDS011;9271;48.590;8.866;2024-03-23T07:14:41;1.00;;;1.00;;
18290;SDS011;9271;48.590;8.866;2024-03-23T07:17:07;0.70;;;0.70;;
18290;SDS011;9271;48.590;8.866;2024-03-23T07:19:33;0.70;;;0.70;;
18290;SDS011;9271;48.590;8.866;2024-03-23T07:21:59;0.80;;;0.80;;
18290;SDS011;9271;48.590;8.866;2024-03-23T07:24:26;0.67;;;0.67;;
18290;SDS011;9271;48.590;8.866;2024-03-23T07:26:52;1.73;;;1.03;;
18290;SDS011;9271;48.590;8.866;2024-03-23T07:29:19;1.27;;;0.93;;
18290;SDS011;9271;48.590;8.866;2024-03-23T07:31:47;0.97;;;0.73;;
18290;SDS011;9271;48.590;8.866;2024-03-23T07:34:13;0.80;;;0.80;;
18290;SDS011;9271;48.590;8.866;2024-03-23T07:36:39;1.27;;;1.00;;
18290;SDS011;9271;48.590;8.866;2024-03-23T07:39:05;0.80;;;0.80;;
18290;SDS011;9271;48.590;8.866;2024-03-23T07:41:33;0.50;;;0.50;;
18290;SDS011;9271;48.590;8.866;2024-03-23T07:43:58;0.37;;;0.37;;
18290;SDS011;9271;48.590;8.866;2024-03-23T07:46:25;0.67;;;0.47;;
18290;SDS011;9271;48.590;8.866;2024-03-23T07:48:52;0.40;;;0.40;;
18290;SDS011;9271;48.590;8.866;2024-03-23T07:51:20;0.50;;;0.50;;
18290;SDS011;9271;48.590;8.866;2024-03-23T07:53:47;2.00;;;0.60;;
18290;SDS011;9271;48.590;8.866;2024-03-23T07:56:14;0.50;;;0.40;;
18290;SDS011;9271;48.590;8.866;2024-03-23T07:58:40;0.60;;;0.60;;
18290;SDS011;9271;48.590;8.866;2024-03-23T08:01:08;0.80;;;0.70;;
18290;SDS011;9271;48.590;8.866;2024-03-23T08:03:35;0.70;;;0.67;;
18290;SDS011;9271;48.590;8.866;2024-03-23T08:06:07;0.90;;;0.73;;
18290;SDS011;9271;48.590;8.866;2024-03-23T08:08:34;1.10;;;1.00;;
18290;SDS011;9271;48.590;8.866;2024-03-23T08:11:00;2.17;;;1.00;;
18290;SDS011;9271;48.590;8.866;2024-03-23T08:13:26;0.87;;;0.87;;
18290;SDS011;9271;48.590;8.866;2024-03-23T08:15:56;1.23;;;1.13;;
18290;SDS011;9271;48.590;8.866;2024-03-23T08:18:22;1.50;;;1.40;;
18290;SDS011;9271;48.590;8.866;2024-03-23T08:20:54;2.23;;;1.37;;
18290;SDS011;9271;48.590;8.866;2024-03-23T08:23:22;3.10;;;1.30;;
18290;SDS011;9271;48.590;8.866;2024-03-23T08:25:49;1.73;;;1.63;;
18290;SDS011;9271;48.590;8.866;2024-03-23T08:28:15;1.57;;;1.30;;
18290;SDS011;9271;48.590;8.866;2024-03-23T08:30:42;1.83;;;1.37;;
18290;SDS011;9271;48.590;8.866;2024-03-23T08:33:07;1.87;;;1.47;;
18290;SDS011;9271;48.590;8.866;2024-03-23T08:35:34;1.73;;;1.40;;
18290;SDS011;9271;48.590;8.866;2024-03-23T08:38:00;1.97;;;1.70;;
18290;SDS011;9271;48.590;8.866;2024-03-23T08:40:28;2.57;;;1.70;;
18290;SDS011;9271;48.590;8.866;2024-03-23T08:42:54;5.77;;;1.80;;
18290;SDS011;9271;48.590;8.866;2024-03-23T08:45:20;2.70;;;1.87;;
18290;SDS011;9271;48.590;8.866;2024-03-23T08:47:46;1.83;;;1.63;;
18290;SDS011;9271;48.590;8.866;2024-03-23T08:50:12;3.90;;;2.00;;
18290;SDS011;9271;48.590;8.866;2024-03-23T08:52:38;3.67;;;2.00;;
18290;SDS011;9271;48.590;8.866;2024-03-23T08:55:05;5.10;;;2.20;;
18290;SDS011;9271;48.590;8.866;2024-03-23T08:57:33;2.77;;;1.93;;
18290;SDS011;9271;48.590;8.866;2024-03-23T08:59:59;3.07;;;2.30;;
18290;SDS011;9271;48.590;8.866;2024-03-23T09:02:25;3.20;;;2.33;;
18290;SDS011;9271;48.590;8.866;2024-03-23T09:04:51;4.37;;;2.57;;
18290;SDS011;9271;48.590;8.866;2024-03-23T09:07:17;5.20;;;2.80;;
18290;SDS011;9271;48.590;8.866;2024-03-23T09:09:44;7.33;;;2.83;;
18290;SDS011;9271;48.590;8.866;2024-03-23T09:12:09;4.13;;;2.83;;
18290;SDS011;9271;48.590;8.866;2024-03-23T09:14:37;5.40;;;2.47;;
18290;SDS011;9271;48.590;8.866;2024-03-23T09:17:03;5.17;;;2.83;;
18290;SDS011;9271;48.590;8.866;2024-03-23T09:19:30;4.10;;;2.10;;
18290;SDS011;9271;48.590;8.866;2024-03-23T09:21:56;3.57;;;2.10;;
18290;SDS011;9271;48.590;8.866;2024-03-23T09:24:22;4.33;;;2.30;;
18290;SDS011;9271;48.590;8.866;2024-03-23T09:26:48;3.50;;;2.23;;
18290;SDS011;9271;48.590;8.866;2024-03-23T09:29:15;3.00;;;2.03;;
18290;SDS011;9271;48.590;8.866;2024-03-23T09:31:42;4.67;;;2.60;;
18290;SDS011;9271;48.590;8.866;2024-03-23T09:34:08;4.30;;;2.70;;
18290;SDS011;9271;48.590;8.866;2024-03-23T09:36:34;4.17;;;2.50;;
18290;SDS011;9271;48.590;8.866;2024-03-23T09:39:01;3.03;;;2.30;;
18290;SDS011;9271;48.590;8.866;2024-03-23T09:41:28;3.97;;;2.17;;
18290;SDS011;9271;48.590;8.866;2024-03-23T09:43:55;5.60;;;2.17;;
18290;SDS011;9271;48.590;8.866;2024-03-23T09:46:21;2.17;;;1.97;;
18290;SDS011;9271;48.590;8.866;2024-03-23T09:48:49;5.13;;;2.20;;
18290;SDS011;9271;48.590;8.866;2024-03-23T09:51:15;3.10;;;2.10;;
18290;SDS011;9271;48.590;8.866;2024-03-23T09:53:41;3.57;;;1.90;;
18290;SDS011;9271;48.590;8.866;2024-03-23T09:56:07;2.10;;;1.90;;
18290;SDS011;9271;48.590;8.866;2024-03-23T09:58:34;3.50;;;1.90;;
18290;SDS011;9271;48.590;8.866;2024-03-23T10:01:01;3.13;;;2.03;;
18290;SDS011;9271;48.590;8.866;2024-03-23T10:03:29;3.37;;;2.20;;
18290;SDS011;9271;48.590;8.866;2024-03-23T10:06:03;4.43;;;2.20;;
18290;SDS011;9271;48.590;8.866;2024-03-23T10:08:30;3.73;;;2.57;;
18290;SDS011;9271;48.590;8.866;2024-03-23T10:10:56;3.90;;;2.37;;
18290;SDS011;9271;48.590;8.866;2024-03-23T10:13:23;3.33;;;2.40;;
18290;SDS011;9271;48.590;8.866;2024-03-23T10:15:54;4.67;;;2.40;;
18290;SDS011;9271;48.590;8.866;2024-03-23T10:18:22;3.63;;;2.17;;
18290;SDS011;9271;48.590;8.866;2024-03-23T10:20:50;4.83;;;2.70;;
18290;SDS011;9271;48.590;8.866;2024-03-23T10:23:19;3.90;;;2.30;;
18290;SDS011;9271;48.590;8.866;2024-03-23T10:25:47;4.27;;;2.80;;
18290;SDS011;9271;48.590;8.866;2024-03-23T10:28:14;5.63;;;2.80;;
18290;SDS011;9271;48.590;8.866;2024-03-23T10:30:40;7.83;;;3.10;;
18290;SDS011;9271;48.590;8.866;2024-03-23T10:33:07;5.97;;;3.10;;
18290;SDS011;9271;48.590;8.866;2024-03-23T10:35:33;4.77;;;2.90;;
18290;SDS011;9271;48.590;8.866;2024-03-23T10:38:00;5.47;;;3.10;;
18290;SDS011;9271;48.590;8.866;2024-03-23T10:40:28;4.80;;;2.50;;
18290;SDS011;9271;48.590;8.866;2024-03-23T10:42:56;3.77;;;2.00;;
18290;SDS011;9271;48.590;8.866;2024-03-23T10:45:23;4.20;;;1.70;;
18290;SDS011;9271;48.590;8.866;2024-03-23T10:47:50;2.60;;;1.90;;
18290;SDS011;9271;48.590;8.866;2024-03-23T10:50:17;2.90;;;1.50;;
18290;SDS011;9271;48.590;8.866;2024-03-23T10:52:45;3.47;;;1.67;;
18290;SDS011;9271;48.590;8.866;2024-03-23T10:55:12;3.77;;;1.43;;
18290;SDS011;9271;48.590;8.866;2024-03-23T10:57:44;2.17;;;1.23;;
18290;SDS011;9271;48.590;8.866;2024-03-23T11:00:13;2.53;;;1.63;;
18290;SDS011;9271;48.590;8.866;2024-03-23T11:02:41;1.33;;;1.23;;
18290;SDS011;9271;48.590;8.866;2024-03-23T11:07:55;3.37;;;1.60;;
18290;SDS011;9271;48.590;8.866;2024-03-23T11:10:24;1.90;;;1.30;;
18290;SDS011;9271;48.590;8.866;2024-03-23T11:12:53;3.33;;;1.70;;
18290;SDS011;9271;48.590;8.866;2024-03-23T11:15:19;2.40;;;1.47;;
18290;SDS011;9271;48.590;8.866;2024-03-23T11:20:30;2.77;;;1.50;;
18290;SDS011;9271;48.590;8.866;2024-03-23T11:22:57;3.13;;;1.43;;
18290;SDS011;9271;48.590;8.866;2024-03-23T11:25:24;3.43;;;1.60;;
18290;SDS011;9271;48.590;8.866;2024-03-23T11:27:52;3.07;;;1.43;;
18290;SDS011;9271;48.590;8.866;2024-03-23T11:30:20;3.53;;;1.57;;
18290;SDS011;9271;48.590;8.866;2024-03-23T11:32:48;2.80;;;1.40;;
18290;SDS011;9271;48.590;8.866;2024-03-23T11:35:25;4.43;;;1.70;;
18290;SDS011;9271;48.590;8.866;2024-03-23T11:38:05;3.80;;;1.67;;
18290;SDS011;9271;48.590;8.866;2024-03-23T11:40:33;2.63;;;1.63;;
18290;SDS011;9271;48.590;8.866;2024-03-23T11:43:01;3.83;;;1.63;;
18290;SDS011;9271;48.590;8.866;2024-03-23T11:45:29;2.83;;;1.47;;
18290;SDS011;9271;48.590;8.866;2024-03-23T11:48:07;4.30;;;1.53;;
18290;SDS011;9271;48.590;8.866;2024-03-23T11:50:35;3.93;;;2.23;;
18290;SDS011;9271;48.590;8.866;2024-03-23T11:53:06;6.13;;;1.93;;
18290;SDS011;9271;48.590;8.866;2024-03-23T11:55:43;3.80;;;1.90;;
18290;SDS011;9271;48.590;8.866;2024-03-23T11:58:14;6.57;;;2.13;;
18290;SDS011;9271;48.590;8.866;2024-03-23T12:00:42;4.40;;;1.87;;
18290;SDS011;9271;48.590;8.866;2024-03-23T12:03:15;3.80;;;2.10;;
18290;SDS011;9271;48.590;8.866;2024-03-23T12:05:46;8.47;;;2.37;;
18290;SDS011;9271;48.590;8.866;2024-03-23T12:08:17;3.63;;;2.07;;
18290;SDS011;9271;48.590;8.866;2024-03-23T12:10:46;5.60;;;2.20;;
18290;SDS011;9271;48.590;8.866;2024-03-23T12:13:15;6.50;;;2.40;;
18290;SDS011;9271;48.590;8.866;2024-03-23T12:15:43;5.90;;;2.37;;
18290;SDS011;9271;48.590;8.866;2024-03-23T12:18:10;5.03;;;2.43;;
18290;SDS011;9271;48.590;8.866;2024-03-23T12:20:37;6.30;;;2.40;;
18290;SDS011;9271;48.590;8.866;2024-03-23T12:23:07;4.23;;;2.07;;
18290;SDS011;9271;48.590;8.866;2024-03-23T12:25:34;4.70;;;2.20;;
18290;SDS011;9271;48.590;8.866;2024-03-23T12:28:00;3.77;;;2.10;;
18290;SDS011;9271;48.590;8.866;2024-03-23T12:30:29;3.17;;;1.90;;
18290;SDS011;9271;48.590;8.866;2024-03-23T12:32:55;3.80;;;1.70;;
18290;SDS011;9271;48.590;8.866;2024-03-23T12:35:21;5.30;;;2.00;;
18290;SDS011;9271;48.590;8.866;2024-03-23T12:37:47;4.27;;;2.13;;
18290;SDS011;9271;48.590;8.866;2024-03-23T12:40:14;4.93;;;2.10;;
18290;SDS011;9271;48.590;8.866;2024-03-23T12:42:40;4.93;;;2.20;;
18290;SDS011;9271;48.590;8.866;2024-03-23T12:45:07;4.83;;;1.90;;
18290;SDS011;9271;48.590;8.866;2024-03-23T12:47:34;6.00;;;2.30;;
18290;SDS011;9271;48.590;8.866;2024-03-23T12:50:01;4.93;;;2.00;;
18290;SDS011;9271;48.590;8.866;2024-03-23T12:52:27;5.43;;;1.93;;
18290;SDS011;9271;48.590;8.866;2024-03-23T12:54:55;3.60;;;1.80;;
18290;SDS011;9271;48.590;8.866;2024-03-23T12:57:21;5.77;;;2.30;;
18290;SDS011;9271;48.590;8.866;2024-03-23T12:59:48;3.90;;;1.60;;
18290;SDS011;9271;48.590;8.866;2024-03-23T13:02:16;2.20;;;1.10;;
18290;SDS011;9271;48.590;8.866;2024-03-23T13:04:45;2.23;;;1.10;;
18290;SDS011;9271;48.590;8.866;2024-03-23T13:07:11;2.60;;;1.60;;
18290;SDS011;9271;48.590;8.866;2024-03-23T13:09:38;2.70;;;1.20;;
18290;SDS011;9271;48.590;8.866;2024-03-23T13:12:04;1.10;;;1.03;;
18290;SDS011;9271;48.590;8.866;2024-03-23T13:14:31;1.17;;;0.97;;
18290;SDS011;9271;48.590;8.866;2024-03-23T13:16:57;1.67;;;0.97;;
18290;SDS011;9271;48.590;8.866;2024-03-23T13:19:24;1.13;;;0.97;;
18290;SDS011;9271;48.590;8.866;2024-03-23T13:21:53;1.23;;;0.80;;
18290;SDS011;9271;48.590;8.866;2024-03-23T13:24:23;0.93;;;0.77;;
18290;SDS011;9271;48.590;8.866;2024-03-23T13:26:50;1.77;;;1.23;;
18290;SDS011;9271;48.590;8.866;2024-03-23T13:29:17;2.43;;;1.27;;
18290;SDS011;9271;48.590;8.866;2024-03-23T13:31:43;2.60;;;1.50;;
18290;SDS011;9271;48.590;8.866;2024-03-23T13:34:10;2.60;;;1.40;;
18290;SDS011;9271;48.590;8.866;2024-03-23T13:36:36;1.60;;;1.30;;
18290;SDS011;9271;48.590;8.866;2024-03-23T13:39:04;2.50;;;1.53;;
18290;SDS011;9271;48.590;8.866;2024-03-23T13:41:35;2.97;;;1.63;;
18290;SDS011;9271;48.590;8.866;2024-03-23T13:44:03;2.40;;;1.30;;
18290;SDS011;9271;48.590;8.866;2024-03-23T13:46:30;3.17;;;1.60;;
18290;SDS011;9271;48.590;8.866;2024-03-23T13:48:55;3.97;;;1.80;;
18290;SDS011;9271;48.590;8.866;2024-03-23T13:51:23;3.13;;;1.50;;
18290;SDS011;9271;48.590;8.866;2024-03-23T13:53:50;2.67;;;1.00;;
18290;SDS011;9271;48.590;8.866;2024-03-23T13:56:18;6.07;;;1.30;;
18290;SDS011;9271;48.590;8.866;2024-03-23T13:58:43;1.70;;;1.27;;
18290;SDS011;9271;48.590;8.866;2024-03-23T14:01:12;4.07;;;1.27;;
18290;SDS011;9271;48.590;8.866;2024-03-23T14:03:38;3.63;;;1.40;;
18290;SDS011;9271;48.590;8.866;2024-03-23T14:06:05;3.50;;;1.80;;
18290;SDS011;9271;48.590;8.866;2024-03-23T14:08:32;3.40;;;1.50;;
18290;SDS011;9271;48.590;8.866;2024-03-23T14:11:00;4.30;;;1.80;;
18290;SDS011;9271;48.590;8.866;2024-03-23T14:13:28;2.40;;;1.50;;
18290;SDS011;9271;48.590;8.866;2024-03-23T14:15:55;2.90;;;1.40;;
18290;SDS011;9271;48.590;8.866;2024-03-23T14:18:21;3.63;;;1.47;;
18290;SDS011;9271;48.590;8.866;2024-03-23T14:20:47;2.93;;;1.57;;
18290;SDS011;9271;48.590;8.866;2024-03-23T14:23:13;4.07;;;1.37;;
18290;SDS011;9271;48.590;8.866;2024-03-23T14:25:40;2.80;;;1.50;;
18290;SDS011;9271;48.590;8.866;2024-03-23T14:28:06;3.00;;;1.50;;
18290;SDS011;9271;48.590;8.866;2024-03-23T14:30:40;1.93;;;1.20;;
18290;SDS011;9271;48.590;8.866;2024-03-23T14:33:06;4.50;;;1.23;;
18290;SDS011;9271;48.590;8.866;2024-03-23T14:35:33;4.07;;;1.20;;
18290;SDS011;9271;48.590;8.866;2024-03-23T14:37:59;4.03;;;1.40;;
18290;SDS011;9271;48.590;8.866;2024-03-23T14:40:25;1.10;;;1.10;;
18290;SDS011;9271;48.590;8.866;2024-03-23T14:42:52;2.40;;;0.93;;
18290;SDS011;9271;48.590;8.866;2024-03-23T14:45:19;2.53;;;1.20;;
18290;SDS011;9271;48.590;8.866;2024-03-23T14:47:46;1.33;;;1.10;;
18290;SDS011;9271;48.590;8.866;2024-03-23T14:50:13;3.67;;;1.20;;
18290;SDS011;9271;48.590;8.866;2024-03-23T14:52:40;3.63;;;1.70;;
18290;SDS011;9271;48.590;8.866;2024-03-23T14:55:07;4.10;;;1.90;;
18290;SDS011;9271;48.590;8.866;2024-03-23T14:57:34;1.97;;;1.20;;
18290;SDS011;9271;48.590;8.866;2024-03-23T15:00:01;1.10;;;0.93;;
18290;SDS011;9271;48.590;8.866;2024-03-23T15:02:29;1.13;;;1.03;;
18290;SDS011;9271;48.590;8.866;2024-03-23T15:04:58;1.87;;;1.37;;
18290;SDS011;9271;48.590;8.866;2024-03-23T15:07:24;1.40;;;1.30;;
18290;SDS011;9271;48.590;8.866;2024-03-23T15:09:50;1.00;;;1.00;;
18290;SDS011;9271;48.590;8.866;2024-03-23T15:12:16;2.43;;;1.00;;
18290;SDS011;9271;48.590;8.866;2024-03-23T15:14:43;1.83;;;0.90;;
18290;SDS011;9271;48.590;8.866;2024-03-23T15:17:08;2.67;;;1.50;;
18290;SDS011;9271;48.590;8.866;2024-03-23T15:19:35;1.87;;;1.00;;
18290;SDS011;9271;48.590;8.866;2024-03-23T15:22:02;1.90;;;1.00;;
18290;SDS011;9271;48.590;8.866;2024-03-23T15:24:29;2.60;;;1.40;;
18290;SDS011;9271;48.590;8.866;2024-03-23T15:26:56;1.67;;;1.40;;
18290;SDS011;9271;48.590;8.866;2024-03-23T15:29:23;3.93;;;1.77;;
18290;SDS011;9271;48.590;8.866;2024-03-23T15:31:49;4.27;;;1.80;;
18290;SDS011;9271;48.590;8.866;2024-03-23T15:34:17;1.77;;;1.33;;
18290;SDS011;9271;48.590;8.866;2024-03-23T15:36:44;1.87;;;0.87;;
18290;SDS011;9271;48.590;8.866;2024-03-23T15:39:12;3.33;;;1.30;;
18290;SDS011;9271;48.590;8.866;2024-03-23T15:41:39;1.63;;;1.10;;
18290;SDS011;9271;48.590;8.866;2024-03-23T15:44:05;1.63;;;1.27;;
18290;SDS011;9271;48.590;8.866;2024-03-23T15:46:31;1.97;;;1.30;;
18290;SDS011;9271;48.590;8.866;2024-03-23T15:48:58;1.73;;;1.20;;
18290;SDS011;9271;48.590;8.866;2024-03-23T15:51:24;1.07;;;0.90;;
18290;SDS011;9271;48.590;8.866;2024-03-23T15:53:56;2.53;;;1.10;;
18290;SDS011;9271;48.590;8.866;2024-03-23T15:56:23;1.40;;;1.00;;
18290;SDS011;9271;48.590;8.866;2024-03-23T15:58:50;1.80;;;1.00;;